sensor_id;sensor_type;location;lat;lon;timestamp;pressure;altitude;pressure_sealevel;temperature;humidity
63395;BME280;49531;-34.520;150.798;2023-06-24T00:00:35;100377.31;;;18.00;41.69
63395;BME280;49531;-34.520;150.798;2023-06-24T00:03:03;100394.72;;;18.09;41.36
63395;BME280;49531;-34.520;150.798;2023-06-24T00:05:33;100384.41;;;18.06;41.01
63395;BME280;49531;-34.520;150.798;2023-06-24T00:08:01;100397.50;;;18.14;41.09
63395;BME280;49531;-34.520;150.798;2023-06-24T00:10:28;100374.75;;;18.10;40.23
63395;BME280;49531;-34.520;150.798;2023-06-24T00:12:55;100386.94;;;18.13;40.57
63395;BME280;49531;-34.520;150.798;2023-06-24T00:15:23;100382.16;;;18.20;40.81
63395;BME280;49531;-34.520;150.798;2023-06-24T00:17:50;100370.28;;;18.21;40.57
63395;BME280;49531;-34.520;150.798;2023-06-24T00:20:17;100385.22;;;18.28;40.16
63395;BME280;49531;-34.520;150.798;2023-06-24T00:22:46;100343.25;;;18.21;39.61
63395;BME280;49531;-34.520;150.798;2023-06-24T00:25:15;100376.41;;;18.38;40.20
63395;BME280;49531;-34.520;150.798;2023-06-24T00:27:42;100369.97;;;18.44;39.39
63395;BME280;49531;-34.520;150.798;2023-06-24T00:30:10;100357.50;;;18.38;39.74
63395;BME280;49531;-34.520;150.798;2023-06-24T00:32:37;100350.41;;;18.32;39.89
63395;BME280;49531;-34.520;150.798;2023-06-24T00:35:05;100361.28;;;18.37;39.73
63395;BME280;49531;-34.520;150.798;2023-06-24T00:37:32;100345.06;;;18.42;39.86
63395;BME280;49531;-34.520;150.798;2023-06-24T00:39:59;100360.28;;;18.48;39.66
63395;BME280;49531;-34.520;150.798;2023-06-24T00:42:27;100351.16;;;18.54;39.77
63395;BME280;49531;-34.520;150.798;2023-06-24T00:44:54;100346.81;;;18.53;39.81
63395;BME280;49531;-34.520;150.798;2023-06-24T00:47:22;100354.25;;;18.63;39.71
63395;BME280;49531;-34.520;150.798;2023-06-24T00:49:50;100344.84;;;18.71;39.70
63395;BME280;49531;-34.520;150.798;2023-06-24T00:52:17;100322.63;;;18.69;39.74
63395;BME280;49531;-34.520;150.798;2023-06-24T00:54:44;100321.09;;;18.78;39.69
63395;BME280;49531;-34.520;150.798;2023-06-24T00:57:12;100316.78;;;18.82;39.55
63395;BME280;49531;-34.520;150.798;2023-06-24T00:59:40;100313.03;;;18.88;39.17
63395;BME280;49531;-34.520;150.798;2023-06-24T01:02:09;100311.72;;;18.90;39.32
63395;BME280;49531;-34.520;150.798;2023-06-24T01:04:37;100308.75;;;18.92;39.12
63395;BME280;49531;-34.520;150.798;2023-06-24T01:07:05;100317.41;;;18.94;38.75
63395;BME280;49531;-34.520;150.798;2023-06-24T01:09:34;100292.97;;;18.84;38.37
63395;BME280;49531;-34.520;150.798;2023-06-24T01:12:02;100299.84;;;18.96;38.57
63395;BME280;49531;-34.520;150.798;2023-06-24T01:14:29;100285.75;;;18.94;38.55
63395;BME280;49531;-34.520;150.798;2023-06-24T01:17:03;100294.19;;;18.98;38.88
63395;BME280;49531;-34.520;150.798;2023-06-24T01:19:59;100248.34;;;18.86;38.83
63395;BME280;49531;-34.520;150.798;2023-06-24T01:22:59;100271.19;;;19.01;38.33
63395;BME280;49531;-34.520;150.798;2023-06-24T01:25:52;100273.41;;;19.09;38.55
63395;BME280;49531;-34.520;150.798;2023-06-24T01:28:52;100261.81;;;19.13;38.25
63395;BME280;49531;-34.520;150.798;2023-06-24T01:31:33;100259.09;;;19.13;38.49
63395;BME280;49531;-34.520;150.798;2023-06-24T01:34:15;100254.72;;;19.07;38.28
63395;BME280;49531;-34.520;150.798;2023-06-24T01:36:54;100260.47;;;19.21;38.31
63395;BME280;49531;-34.520;150.798;2023-06-24T01:39:24;100262.09;;;19.22;38.34
63395;BME280;49531;-34.520;150.798;2023-06-24T01:41:59;100246.38;;;19.14;38.20
63395;BME280;49531;-34.520;150.798;2023-06-24T01:44:28;100242.59;;;19.20;37.69
63395;BME280;49531;-34.520;150.798;2023-06-24T01:46:57;100250.25;;;19.33;37.36
63395;BME280;49531;-34.520;150.798;2023-06-24T01:49:28;100240.84;;;19.46;37.46
63395;BME280;49531;-34.520;150.798;2023-06-24T01:51:57;100227.34;;;19.51;37.55
63395;BME280;49531;-34.520;150.798;2023-06-24T01:54:28;100242.00;;;19.65;37.62
63395;BME280;49531;-34.520;150.798;2023-06-24T01:56:58;100224.41;;;19.68;37.36
63395;BME280;49531;-34.520;150.798;2023-06-24T01:59:29;100233.66;;;19.82;36.65
63395;BME280;49531;-34.520;150.798;2023-06-24T02:01:57;100222.03;;;19.86;36.72
63395;BME280;49531;-34.520;150.798;2023-06-24T02:04:27;100222.56;;;19.83;36.72
63395;BME280;49531;-34.520;150.798;2023-06-24T02:07:01;100226.34;;;19.87;36.66
63395;BME280;49531;-34.520;150.798;2023-06-24T02:09:29;100222.03;;;19.91;36.61
63395;BME280;49531;-34.520;150.798;2023-06-24T02:12:02;100211.19;;;19.96;36.79
63395;BME280;49531;-34.520;150.798;2023-06-24T02:14:30;100206.31;;;19.98;36.41
63395;BME280;49531;-34.520;150.798;2023-06-24T02:17:00;100199.53;;;20.01;36.40
63395;BME280;49531;-34.520;150.798;2023-06-24T02:19:30;100201.97;;;20.08;36.61
63395;BME280;49531;-34.520;150.798;2023-06-24T02:21:59;100201.44;;;20.06;36.01
63395;BME280;49531;-34.520;150.798;2023-06-24T02:24:29;100199.00;;;20.04;36.39
63395;BME280;49531;-34.520;150.798;2023-06-24T02:26:57;100215.00;;;20.11;36.49
63395;BME280;49531;-34.520;150.798;2023-06-24T02:29:26;100198.19;;;20.14;36.55
63395;BME280;49531;-34.520;150.798;2023-06-24T02:31:54;100183.00;;;20.08;36.41
63395;BME280;49531;-34.520;150.798;2023-06-24T02:34:23;100187.63;;;20.17;36.11
63395;BME280;49531;-34.520;150.798;2023-06-24T02:36:51;100187.63;;;20.17;35.90
63395;BME280;49531;-34.520;150.798;2023-06-24T02:39:19;100191.69;;;20.30;35.96
63395;BME280;49531;-34.520;150.798;2023-06-24T02:41:46;100186.81;;;20.27;36.17
63395;BME280;49531;-34.520;150.798;2023-06-24T02:44:17;100171.09;;;20.29;35.78
63395;BME280;49531;-34.520;150.798;2023-06-24T02:46:45;100179.22;;;20.34;35.69
63395;BME280;49531;-34.520;150.798;2023-06-24T02:49:16;100168.38;;;20.34;35.39
63395;BME280;49531;-34.520;150.798;2023-06-24T02:51:44;100155.63;;;20.40;35.53
63395;BME280;49531;-34.520;150.798;2023-06-24T02:54:12;100143.41;;;20.32;35.63
63395;BME280;49531;-34.520;150.798;2023-06-24T02:56:41;100151.00;;;20.35;35.40
63395;BME280;49531;-34.520;150.798;2023-06-24T02:59:11;100136.91;;;20.33;35.30
63395;BME280;49531;-34.520;150.798;2023-06-24T03:01:38;100155.88;;;20.43;35.83
63395;BME280;49531;-34.520;150.798;2023-06-24T03:04:11;100145.03;;;20.48;35.59
63395;BME280;49531;-34.520;150.798;2023-06-24T03:06:39;100132.56;;;20.37;35.96
63395;BME280;49531;-34.520;150.798;2023-06-24T03:09:07;100138.84;;;20.38;35.92
63395;BME280;49531;-34.520;150.798;2023-06-24T03:11:43;100141.28;;;20.39;35.96
63395;BME280;49531;-34.520;150.798;2023-06-24T03:14:10;100125.50;;;20.36;35.83
63395;BME280;49531;-34.520;150.798;2023-06-24T03:16:39;100126.88;;;20.44;35.31
63395;BME280;49531;-34.520;150.798;2023-06-24T03:19:06;100122.81;;;20.41;35.46
63395;BME280;49531;-34.520;150.798;2023-06-24T03:21:33;100085.91;;;20.35;35.51
63395;BME280;49531;-34.520;150.798;2023-06-24T03:24:01;100108.97;;;20.48;35.32
63395;BME280;49531;-34.520;150.798;2023-06-24T03:26:37;100110.84;;;20.52;35.38
63395;BME280;49531;-34.520;150.798;2023-06-24T03:29:05;100084.00;;;20.41;35.12
63395;BME280;49531;-34.520;150.798;2023-06-24T03:31:34;100099.44;;;20.60;35.45
63395;BME280;49531;-34.520;150.798;2023-06-24T03:34:01;100101.63;;;20.58;35.68
63395;BME280;49531;-34.520;150.798;2023-06-24T03:36:29;100083.72;;;20.47;35.77
63395;BME280;49531;-34.520;150.798;2023-06-24T03:38:56;100103.25;;;20.59;35.84
63395;BME280;49531;-34.520;150.798;2023-06-24T03:41:24;100094.56;;;20.57;35.80
63395;BME280;49531;-34.520;150.798;2023-06-24T03:43:52;100090.75;;;20.58;35.78
63395;BME280;49531;-34.520;150.798;2023-06-24T03:46:19;100090.75;;;20.58;35.55
63395;BME280;49531;-34.520;150.798;2023-06-24T03:48:47;100101.63;;;20.58;36.11
63395;BME280;49531;-34.520;150.798;2023-06-24T03:51:14;100095.91;;;20.55;35.80
63395;BME280;49531;-34.520;150.798;2023-06-24T03:53:41;100106.50;;;20.61;36.56
63395;BME280;49531;-34.520;150.798;2023-06-24T03:56:08;100108.94;;;20.63;36.50
63395;BME280;49531;-34.520;150.798;2023-06-24T03:58:35;100105.94;;;20.59;36.38
63395;BME280;49531;-34.520;150.798;2023-06-24T04:01:03;100109.75;;;20.58;36.39
63395;BME280;49531;-34.520;150.798;2023-06-24T04:03:30;100115.16;;;20.63;36.14
63395;BME280;49531;-34.520;150.798;2023-06-24T04:05:58;100111.09;;;20.61;35.84
63395;BME280;49531;-34.520;150.798;2023-06-24T04:08:28;100095.63;;;20.61;35.94
63395;BME280;49531;-34.520;150.798;2023-06-24T04:10:57;100104.31;;;20.63;35.81
63395;BME280;49531;-34.520;150.798;2023-06-24T04:13:29;100109.47;;;20.60;35.96
63395;BME280;49531;-34.520;150.798;2023-06-24T04:15:57;100068.03;;;20.39;35.37
63395;BME280;49531;-34.520;150.798;2023-06-24T04:18:24;100110.81;;;20.68;35.46
63395;BME280;49531;-34.520;150.798;2023-06-24T04:20:52;100095.09;;;20.64;35.74
63395;BME280;49531;-34.520;150.798;2023-06-24T04:23:19;100099.72;;;20.59;34.59
63395;BME280;49531;-34.520;150.798;2023-06-24T04:25:46;100109.19;;;20.67;34.69
63395;BME280;49531;-34.520;150.798;2023-06-24T04:28:13;100103.50;;;20.58;34.96
63395;BME280;49531;-34.520;150.798;2023-06-24T04:30:40;100100.50;;;20.64;34.98
63395;BME280;49531;-34.520;150.798;2023-06-24T04:33:08;100096.19;;;20.53;35.25
63395;BME280;49531;-34.520;150.798;2023-06-24T04:35:35;100080.75;;;20.49;34.75
63395;BME280;49531;-34.520;150.798;2023-06-24T04:38:03;100093.75;;;20.62;34.68
63395;BME280;49531;-34.520;150.798;2023-06-24T04:40:30;100097.81;;;20.64;35.26
63395;BME280;49531;-34.520;150.798;2023-06-24T04:42:57;100094.00;;;20.66;35.19
63395;BME280;49531;-34.520;150.798;2023-06-24T04:45:25;100096.72;;;20.66;35.02
63395;BME280;49531;-34.520;150.798;2023-06-24T04:47:52;100086.69;;;20.61;34.37
63395;BME280;49531;-34.520;150.798;2023-06-24T04:50:20;100091.28;;;20.66;34.73
63395;BME280;49531;-34.520;150.798;2023-06-24T04:52:54;100097.81;;;20.64;34.75
63395;BME280;49531;-34.520;150.798;2023-06-24T04:55:23;100093.72;;;20.72;34.25
63395;BME280;49531;-34.520;150.798;2023-06-24T04:57:50;100085.59;;;20.67;33.78
63395;BME280;49531;-34.520;150.798;2023-06-24T05:00:17;100084.50;;;20.68;33.77
63395;BME280;49531;-34.520;150.798;2023-06-24T05:02:44;100090.19;;;20.72;33.57
63395;BME280;49531;-34.520;150.798;2023-06-24T05:05:11;100099.41;;;20.71;33.93
63395;BME280;49531;-34.520;150.798;2023-06-24T05:07:39;100085.03;;;20.70;34.45
63395;BME280;49531;-34.520;150.798;2023-06-24T05:10:06;100079.06;;;20.73;34.51
63395;BME280;49531;-34.520;150.798;2023-06-24T05:12:33;100087.47;;;20.72;34.31
63395;BME280;49531;-34.520;150.798;2023-06-24T05:15:00;100070.13;;;20.62;34.13
63395;BME280;49531;-34.520;150.798;2023-06-24T05:17:28;100091.00;;;20.72;33.37
63395;BME280;49531;-34.520;150.798;2023-06-24T05:19:56;100089.09;;;20.68;34.43
63395;BME280;49531;-34.520;150.798;2023-06-24T05:22:23;100091.81;;;20.68;34.57
63395;BME280;49531;-34.520;150.798;2023-06-24T05:24:51;100085.03;;;20.65;34.58
63395;BME280;49531;-34.520;150.798;2023-06-24T05:27:18;100080.97;;;20.68;34.67
63395;BME280;49531;-34.520;150.798;2023-06-24T05:29:46;100079.91;;;20.58;34.65
63395;BME280;49531;-34.520;150.798;2023-06-24T05:32:13;100076.09;;;20.64;34.27
63395;BME280;49531;-34.520;150.798;2023-06-24T05:34:40;100081.25;;;20.66;34.17
63395;BME280;49531;-34.520;150.798;2023-06-24T05:37:08;100076.91;;;20.60;34.72
63395;BME280;49531;-34.520;150.798;2023-06-24T05:39:35;100062.25;;;20.61;34.46
63395;BME280;49531;-34.520;150.798;2023-06-24T05:42:02;100072.56;;;20.64;34.37
63395;BME280;49531;-34.520;150.798;2023-06-24T05:44:29;100074.44;;;20.69;34.70
63395;BME280;49531;-34.520;150.798;2023-06-24T05:46:56;100079.06;;;20.68;34.24
63395;BME280;49531;-34.520;150.798;2023-06-24T05:49:24;100076.09;;;20.64;34.60
63395;BME280;49531;-34.520;150.798;2023-06-24T05:51:51;100078.53;;;20.66;34.79
63395;BME280;49531;-34.520;150.798;2023-06-24T05:54:18;100072.84;;;20.62;35.09
63395;BME280;49531;-34.520;150.798;2023-06-24T05:56:46;100071.50;;;20.60;35.20
63395;BME280;49531;-34.520;150.798;2023-06-24T05:59:13;100078.81;;;20.64;34.69
63395;BME280;49531;-34.520;150.798;2023-06-24T06:01:40;100086.41;;;20.62;34.50
63395;BME280;49531;-34.520;150.798;2023-06-24T06:04:07;100090.75;;;20.58;34.99
63395;BME280;49531;-34.520;150.798;2023-06-24T06:06:34;100092.41;;;20.54;34.95
63395;BME280;49531;-34.520;150.798;2023-06-24T06:09:01;100098.91;;;20.48;35.31
63395;BME280;49531;-34.520;150.798;2023-06-24T06:11:28;100089.97;;;20.48;35.43
63395;BME280;49531;-34.520;150.798;2023-06-24T06:13:56;100097.28;;;20.52;35.20
63395;BME280;49531;-34.520;150.798;2023-06-24T06:16:23;100078.03;;;20.49;35.48
63395;BME280;49531;-34.520;150.798;2023-06-24T06:18:50;100091.03;;;20.52;35.75
63395;BME280;49531;-34.520;150.798;2023-06-24T06:21:17;100097.28;;;20.57;35.68
63395;BME280;49531;-34.520;150.798;2023-06-24T06:23:44;100095.13;;;20.54;35.92
63395;BME280;49531;-34.520;150.798;2023-06-24T06:26:11;100096.47;;;20.57;35.90
63395;BME280;49531;-34.520;150.798;2023-06-24T06:28:39;100079.66;;;20.45;36.17
63395;BME280;49531;-34.520;150.798;2023-06-24T06:31:07;100096.22;;;20.48;36.22
63395;BME280;49531;-34.520;150.798;2023-06-24T06:33:34;100093.47;;;20.53;36.21
63395;BME280;49531;-34.520;150.798;2023-06-24T06:36:01;100089.41;;;20.51;36.43
63395;BME280;49531;-34.520;150.798;2023-06-24T06:38:28;100096.22;;;20.48;36.46
63395;BME280;49531;-34.520;150.798;2023-06-24T06:40:55;100092.97;;;20.41;36.54
63395;BME280;49531;-34.520;150.798;2023-06-24T06:43:22;100089.72;;;20.44;36.65
63395;BME280;49531;-34.520;150.798;2023-06-24T06:45:49;100076.69;;;20.36;36.87
63395;BME280;49531;-34.520;150.798;2023-06-24T06:48:16;100086.44;;;20.47;36.79
63395;BME280;49531;-34.520;150.798;2023-06-24T06:50:45;100090.00;;;20.38;36.89
63395;BME280;49531;-34.520;150.798;2023-06-24T06:53:12;100084.84;;;20.31;37.25
63395;BME280;49531;-34.520;150.798;2023-06-24T06:55:39;100086.47;;;20.32;36.59
63395;BME280;49531;-34.520;150.798;2023-06-24T06:58:09;100081.59;;;20.29;36.83
63395;BME280;49531;-34.520;150.798;2023-06-24T07:00:36;100094.59;;;20.32;35.86
63395;BME280;49531;-34.520;150.798;2023-06-24T07:03:03;100103.00;;;20.30;35.47
63395;BME280;49531;-34.520;150.798;2023-06-24T07:05:31;100090.00;;;20.22;36.29
63395;BME280;49531;-34.520;150.798;2023-06-24T07:07:58;100093.53;;;20.23;35.36
63395;BME280;49531;-34.520;150.798;2023-06-24T07:10:25;100085.41;;;20.13;35.71
63395;BME280;49531;-34.520;150.798;2023-06-24T07:12:52;100101.94;;;20.21;35.31
63395;BME280;49531;-34.520;150.798;2023-06-24T07:15:26;100107.91;;;20.18;35.09
63395;BME280;49531;-34.520;150.798;2023-06-24T07:17:53;100108.72;;;20.19;35.16
63395;BME280;49531;-34.520;150.798;2023-06-24T07:20:21;100099.50;;;20.10;35.06
63395;BME280;49531;-34.520;150.798;2023-06-24T07:22:49;100102.47;;;20.08;35.45
63395;BME280;49531;-34.520;150.798;2023-06-24T07:25:16;100107.09;;;20.03;35.04
63395;BME280;49531;-34.520;150.798;2023-06-24T07:27:43;100119.28;;;20.05;35.38
63395;BME280;49531;-34.520;150.798;2023-06-24T07:30:11;100123.91;;;20.05;35.55
63395;BME280;49531;-34.520;150.798;2023-06-24T07:32:38;100134.47;;;20.01;35.34
63395;BME280;49531;-34.520;150.798;2023-06-24T07:35:06;100132.06;;;19.94;35.38
63395;BME280;49531;-34.520;150.798;2023-06-24T07:37:34;100142.91;;;19.94;35.56
63395;BME280;49531;-34.520;150.798;2023-06-24T07:40:02;100142.91;;;19.94;35.74
63395;BME280;49531;-34.520;150.798;2023-06-24T07:42:30;100135.84;;;19.88;35.46
63395;BME280;49531;-34.520;150.798;2023-06-24T07:44:57;100134.75;;;19.84;35.51
63395;BME280;49531;-34.520;150.798;2023-06-24T07:47:24;100143.97;;;19.83;35.57
63395;BME280;49531;-34.520;150.798;2023-06-24T07:49:52;100162.13;;;19.88;35.66
63395;BME280;49531;-34.520;150.798;2023-06-24T07:52:19;100162.13;;;19.88;35.62
63395;BME280;49531;-34.520;150.798;2023-06-24T07:54:46;100161.03;;;19.89;35.68
63395;BME280;49531;-34.520;150.798;2023-06-24T07:57:14;100155.91;;;19.87;35.70
63395;BME280;49531;-34.520;150.798;2023-06-24T07:59:42;100148.56;;;19.78;35.78
63395;BME280;49531;-34.520;150.798;2023-06-24T08:02:09;100146.13;;;19.81;35.99
63395;BME280;49531;-34.520;150.798;2023-06-24T08:04:36;100139.31;;;19.69;35.96
63395;BME280;49531;-34.520;150.798;2023-06-24T08:07:04;100145.03;;;19.72;36.28
63395;BME280;49531;-34.520;150.798;2023-06-24T08:09:31;100147.72;;;19.72;36.29
63395;BME280;49531;-34.520;150.798;2023-06-24T08:11:58;100160.19;;;19.73;36.38
63395;BME280;49531;-34.520;150.798;2023-06-24T08:14:25;100164.25;;;19.71;36.52
63395;BME280;49531;-34.520;150.798;2023-06-24T08:16:52;100145.28;;;19.60;36.69
63395;BME280;49531;-34.520;150.798;2023-06-24T08:19:20;100160.19;;;19.63;36.61
63395;BME280;49531;-34.520;150.798;2023-06-24T08:21:47;100144.75;;;19.58;36.28
63395;BME280;49531;-34.520;150.798;2023-06-24T08:24:14;100156.66;;;19.57;36.65
63395;BME280;49531;-34.520;150.798;2023-06-24T08:26:41;100165.59;;;19.63;36.39
63395;BME280;49531;-34.520;150.798;2023-06-24T08:29:08;100162.34;;;19.61;36.18
63395;BME280;49531;-34.520;150.798;2023-06-24T08:31:35;100155.25;;;19.50;35.83
63395;BME280;49531;-34.520;150.798;2023-06-24T08:34:03;100164.19;;;19.50;36.22
63395;BME280;49531;-34.520;150.798;2023-06-24T08:36:32;100172.09;;;19.52;36.68
63395;BME280;49531;-34.520;150.798;2023-06-24T08:39:00;100180.22;;;19.52;36.63
63395;BME280;49531;-34.520;150.798;2023-06-24T08:41:27;100172.56;;;19.44;36.60
63395;BME280;49531;-34.520;150.798;2023-06-24T08:43:54;100181.50;;;19.39;36.88
63395;BME280;49531;-34.520;150.798;2023-06-24T08:46:24;100185.84;;;19.40;36.92
63395;BME280;49531;-34.520;150.798;2023-06-24T08:49:14;100185.00;;;19.35;37.15
63395;BME280;49531;-34.520;150.798;2023-06-24T08:51:45;100186.34;;;19.37;37.13
63395;BME280;49531;-34.520;150.798;2023-06-24T08:54:14;100178.50;;;19.36;37.31
63395;BME280;49531;-34.520;150.798;2023-06-24T08:56:42;100174.41;;;19.28;37.33
63395;BME280;49531;-34.520;150.798;2023-06-24T08:59:09;100197.97;;;19.32;37.26
63395;BME280;49531;-34.520;150.798;2023-06-24T09:01:36;100195.00;;;19.29;37.39
63395;BME280;49531;-34.520;150.798;2023-06-24T09:04:04;100199.59;;;19.28;37.29
63395;BME280;49531;-34.520;150.798;2023-06-24T09:06:33;100193.63;;;19.26;37.51
63395;BME280;49531;-34.520;150.798;2023-06-24T09:09:00;100197.41;;;19.25;37.48
63395;BME280;49531;-34.520;150.798;2023-06-24T09:11:28;100208.75;;;19.22;37.38
63395;BME280;49531;-34.520;150.798;2023-06-24T09:13:56;100206.59;;;19.19;37.55
63395;BME280;49531;-34.520;150.798;2023-06-24T09:16:23;100208.50;;;19.19;37.48
63395;BME280;49531;-34.520;150.798;2023-06-24T09:18:51;100205.75;;;19.09;37.71
63395;BME280;49531;-34.520;150.798;2023-06-24T09:21:27;100228.50;;;19.13;37.63
63395;BME280;49531;-34.520;150.798;2023-06-24T09:23:58;100222.53;;;19.11;37.53
63395;BME280;49531;-34.520;150.798;2023-06-24T09:26:26;100211.16;;;19.09;37.55
63395;BME280;49531;-34.520;150.798;2023-06-24T09:28:53;100214.13;;;19.07;37.45
63395;BME280;49531;-34.520;150.798;2023-06-24T09:31:21;100213.56;;;19.05;37.54
63395;BME280;49531;-34.520;150.798;2023-06-24T09:33:50;100216.47;;;18.93;37.53
63395;BME280;49531;-34.520;150.798;2023-06-24T09:36:17;100229.78;;;19.00;37.67
63395;BME280;49531;-34.520;150.798;2023-06-24T09:38:45;100218.63;;;18.91;37.53
63395;BME280;49531;-34.520;150.798;2023-06-24T09:41:13;100221.59;;;18.90;37.52
63395;BME280;49531;-34.520;150.798;2023-06-24T09:43:42;100240.00;;;18.93;37.36
63395;BME280;49531;-34.520;150.798;2023-06-24T09:46:11;100236.19;;;18.89;37.50
63395;BME280;49531;-34.520;150.798;2023-06-24T09:48:39;100231.81;;;18.78;37.41
63395;BME280;49531;-34.520;150.798;2023-06-24T09:51:07;100242.09;;;18.81;37.75
63395;BME280;49531;-34.520;150.798;2023-06-24T09:53:35;100245.31;;;18.73;37.61
63395;BME280;49531;-34.520;150.798;2023-06-24T09:56:04;100257.25;;;18.77;37.55
63395;BME280;49531;-34.520;150.798;2023-06-24T09:58:36;100246.91;;;18.69;37.80
63395;BME280;49531;-34.520;150.798;2023-06-24T10:01:05;100252.34;;;18.74;37.82
63395;BME280;49531;-34.520;150.798;2023-06-24T10:03:36;100243.34;;;18.63;37.86
63395;BME280;49531;-34.520;150.798;2023-06-24T10:06:05;100263.69;;;18.71;37.69
63395;BME280;49531;-34.520;150.798;2023-06-24T10:08:34;100256.91;;;18.68;37.86
63395;BME280;49531;-34.520;150.798;2023-06-24T10:11:10;100264.72;;;18.64;37.73
63395;BME280;49531;-34.520;150.798;2023-06-24T10:13:38;100270.69;;;18.67;37.75
63395;BME280;49531;-34.520;150.798;2023-06-24T10:16:05;100275.25;;;18.61;37.58
63395;BME280;49531;-34.520;150.798;2023-06-24T10:18:35;100287.19;;;18.65;37.42
63395;BME280;49531;-34.520;150.798;2023-06-24T10:21:04;100288.50;;;18.62;37.42
63395;BME280;49531;-34.520;150.798;2023-06-24T10:23:39;100295.47;;;18.58;37.20
63395;BME280;49531;-34.520;150.798;2023-06-24T10:26:10;100294.66;;;18.58;37.17
63395;BME280;49531;-34.520;150.798;2023-06-24T10:29:09;100293.78;;;18.52;37.12
63395;BME280;49531;-34.520;150.798;2023-06-24T10:31:52;100299.75;;;18.54;37.40
63395;BME280;49531;-34.520;150.798;2023-06-24T10:34:31;100295.94;;;18.50;37.36
63395;BME280;49531;-34.520;150.798;2023-06-24T10:37:02;100296.13;;;18.44;37.46
63395;BME280;49531;-34.520;150.798;2023-06-24T10:39:49;100302.94;;;18.46;37.63
63395;BME280;49531;-34.520;150.798;2023-06-24T10:42:27;100299.91;;;18.43;37.54
63395;BME280;49531;-34.520;150.798;2023-06-24T10:44:57;100289.91;;;18.38;37.36
63395;BME280;49531;-34.520;150.798;2023-06-24T10:47:26;100305.31;;;18.43;37.39
63395;BME280;49531;-34.520;150.798;2023-06-24T10:49:53;100289.03;;;18.32;36.74
63395;BME280;49531;-34.520;150.798;2023-06-24T10:52:22;100292.84;;;18.37;36.82
63395;BME280;49531;-34.520;150.798;2023-06-24T10:54:50;100299.59;;;18.34;36.59
63395;BME280;49531;-34.520;150.798;2023-06-24T10:57:23;100295.72;;;18.25;36.67
63395;BME280;49531;-34.520;150.798;2023-06-24T10:59:52;100297.09;;;18.27;36.20
63395;BME280;49531;-34.520;150.798;2023-06-24T11:02:21;100299.78;;;18.27;35.86
63395;BME280;49531;-34.520;150.798;2023-06-24T11:04:51;100283.72;;;18.16;35.68
63395;BME280;49531;-34.520;150.798;2023-06-24T11:07:21;100291.63;;;18.22;35.83
63395;BME280;49531;-34.520;150.798;2023-06-24T11:09:51;100291.31;;;18.19;35.90
63395;BME280;49531;-34.520;150.798;2023-06-24T11:12:24;100290.75;;;18.17;36.29
63395;BME280;49531;-34.520;150.798;2023-06-24T11:14:56;100276.94;;;18.13;35.97
63395;BME280;49531;-34.520;150.798;2023-06-24T11:17:25;100282.91;;;18.15;36.34
63395;BME280;49531;-34.520;150.798;2023-06-24T11:19:56;100275.00;;;18.09;36.20
63395;BME280;49531;-34.520;150.798;2023-06-24T11:22:25;100273.31;;;18.03;36.26
63395;BME280;49531;-34.520;150.798;2023-06-24T11:24:53;100272.25;;;18.04;36.21
63395;BME280;49531;-34.520;150.798;2023-06-24T11:27:27;100272.50;;;18.02;36.16
63395;BME280;49531;-34.520;150.798;2023-06-24T11:29:54;100282.22;;;18.03;36.40
63395;BME280;49531;-34.520;150.798;2023-06-24T11:32:21;100269.72;;;17.92;36.66
63395;BME280;49531;-34.520;150.798;2023-06-24T11:34:49;100281.38;;;17.97;36.33
63395;BME280;49531;-34.520;150.798;2023-06-24T11:37:18;100275.97;;;17.97;36.50
63395;BME280;49531;-34.520;150.798;2023-06-24T11:39:55;100261.22;;;17.83;36.63
63395;BME280;49531;-34.520;150.798;2023-06-24T11:42:28;100274.78;;;17.88;36.37
63395;BME280;49531;-34.520;150.798;2023-06-24T11:45:07;100273.16;;;17.87;36.28
63395;BME280;49531;-34.520;150.798;2023-06-24T11:47:36;100280.44;;;17.87;36.08
63395;BME280;49531;-34.520;150.798;2023-06-24T11:50:06;100271.28;;;17.88;36.01
63395;BME280;49531;-34.520;150.798;2023-06-24T11:52:40;100252.25;;;17.78;36.12
63395;BME280;49531;-34.520;150.798;2023-06-24T11:55:13;100263.38;;;17.81;36.49
63395;BME280;49531;-34.520;150.798;2023-06-24T11:57:51;100263.88;;;17.78;36.63
63395;BME280;49531;-34.520;150.798;2023-06-24T12:00:24;100264.63;;;17.74;36.68
63395;BME280;49531;-34.520;150.798;2023-06-24T12:02:55;100258.97;;;17.75;36.72
63395;BME280;49531;-34.520;150.798;2023-06-24T12:05:26;100258.16;;;17.75;36.23
63395;BME280;49531;-34.520;150.798;2023-06-24T12:07:56;100257.03;;;17.71;36.71
63395;BME280;49531;-34.520;150.798;2023-06-24T12:10:23;100258.66;;;17.72;36.61
63395;BME280;49531;-34.520;150.798;2023-06-24T12:12:52;100256.72;;;17.67;36.58
63395;BME280;49531;-34.520;150.798;2023-06-24T12:15:19;100237.44;;;17.58;36.65
63395;BME280;49531;-34.520;150.798;2023-06-24T12:17:46;100230.41;;;17.57;36.92
63395;BME280;49531;-34.520;150.798;2023-06-24T12:20:14;100228.50;;;17.58;36.57
63395;BME280;49531;-34.520;150.798;2023-06-24T12:22:42;100242.00;;;17.58;36.67
63395;BME280;49531;-34.520;150.798;2023-06-24T12:25:09;100232.53;;;17.55;36.79
63395;BME280;49531;-34.520;150.798;2023-06-24T12:27:37;100237.94;;;17.55;36.73
63395;BME280;49531;-34.520;150.798;2023-06-24T12:30:05;100244.34;;;17.49;36.87